createdAt,value
2019-03-19T00:01:58.420Z,34.50
2019-03-19T00:07:01.985Z,34.75
2019-03-19T00:12:05.530Z,34.27
2019-03-19T00:17:09.075Z,34.90
2019-03-19T00:22:12.664Z,34.95
2019-03-19T00:27:16.194Z,35.15
2019-03-19T00:32:19.732Z,35.37
2019-03-19T00:37:23.298Z,36.19
2019-03-19T00:42:26.859Z,38.35
2019-03-19T00:47:30.375Z,39.24
2019-03-19T00:52:33.942Z,40.28
2019-03-19T00:57:37.508Z,40.76
2019-03-19T01:02:41.037Z,40.94
2019-03-19T01:07:44.569Z,41.31
2019-03-19T01:12:48.117Z,41.15
2019-03-19T01:17:51.683Z,40.59
2019-03-19T01:22:55.243Z,38.42
2019-03-19T01:27:58.770Z,37.16
2019-03-19T01:33:02.327Z,36.77
2019-03-19T01:38:05.864Z,40.78
2019-03-19T01:43:09.399Z,40.20
2019-03-19T01:48:12.964Z,36.97
2019-03-19T01:53:16.516Z,34.93
2019-03-19T01:58:20.107Z,33.63
2019-03-19T02:03:23.655Z,32.82
2019-03-19T02:08:27.193Z,32.89
2019-03-19T02:13:30.793Z,33.14
2019-03-19T02:18:34.312Z,33.04
2019-03-19T02:23:37.852Z,33.18
2019-03-19T02:28:41.420Z,32.82
2019-03-19T02:33:44.953Z,33.26
2019-03-19T02:38:49.025Z,34.00
2019-03-19T02:43:52.555Z,35.36
2019-03-19T02:48:56.101Z,36.01
2019-03-19T02:54:00.072Z,37.18
2019-03-19T02:59:03.626Z,36.48
2019-03-19T03:04:07.192Z,37.96
2019-03-19T03:09:10.762Z,37.10
2019-03-19T03:14:14.360Z,38.47
2019-03-19T03:19:17.878Z,38.48
2019-03-19T03:24:21.556Z,35.78
2019-03-19T03:29:25.107Z,36.08
2019-03-19T03:34:28.670Z,39.86
2019-03-19T03:39:32.207Z,38.53
2019-03-19T03:44:35.767Z,36.79
2019-03-19T03:49:39.330Z,34.76
2019-03-19T03:54:42.885Z,32.97
2019-03-19T03:59:46.432Z,32.14
2019-03-19T04:04:49.975Z,31.31
2019-03-19T04:09:53.583Z,30.33
2019-03-19T04:14:57.113Z,29.57
2019-03-19T04:20:00.742Z,29.29
2019-03-19T04:25:04.905Z,29.04
2019-03-19T04:30:13.512Z,28.53
2019-03-19T04:35:17.071Z,28.44
2019-03-19T04:40:20.603Z,27.74
2019-03-19T04:45:24.193Z,28.04
2019-03-19T04:50:27.707Z,27.66
2019-03-19T04:55:31.280Z,27.43
2019-03-19T05:00:34.841Z,27.40
2019-03-19T05:05:38.422Z,27.09
2019-03-19T05:10:41.944Z,27.50
2019-03-19T05:15:45.613Z,27.30
2019-03-19T05:20:49.171Z,27.04
2019-03-19T05:25:52.729Z,27.19
2019-03-19T05:30:56.266Z,27.15
2019-03-19T05:35:59.842Z,26.54
2019-03-19T05:41:03.385Z,26.80
2019-03-19T05:46:06.973Z,26.84
2019-03-19T05:51:10.536Z,26.41
2019-03-19T05:56:14.347Z,26.56
2019-03-19T06:01:17.871Z,27.20
2019-03-19T06:06:21.541Z,27.50
2019-03-19T06:11:25.088Z,28.87
2019-03-19T06:16:28.644Z,29.65
2019-03-19T06:21:32.230Z,29.50
2019-03-19T06:26:35.753Z,30.40
2019-03-19T06:31:39.359Z,30.11
2019-03-19T06:36:42.897Z,29.90
2019-03-19T06:41:46.433Z,29.40
2019-03-19T06:46:50.096Z,28.99
2019-03-19T06:51:53.618Z,28.84
2019-03-19T06:56:57.195Z,29.39
2019-03-19T07:02:00.761Z,29.99
2019-03-19T07:07:05.228Z,32.54
2019-03-19T07:12:08.755Z,32.97
2019-03-19T07:17:12.304Z,32.65
2019-03-19T07:22:15.851Z,33.77
2019-03-19T07:27:19.421Z,33.82
2019-03-19T07:32:22.968Z,33.32
2019-03-19T07:37:26.563Z,34.77
2019-03-19T07:42:30.090Z,34.24
2019-03-19T07:50:47.201Z,33.77
2019-03-19T07:55:52.479Z,33.70
2019-03-19T08:00:56.051Z,33.00
2019-03-19T08:05:59.775Z,33.57
2019-03-19T08:11:03.327Z,33.84
2019-03-19T08:16:06.866Z,33.15
2019-03-19T08:21:10.437Z,33.55
2019-03-19T08:26:13.995Z,32.79
2019-03-19T08:31:17.524Z,34.15
2019-03-19T08:36:21.180Z,32.32
2019-03-19T08:41:24.711Z,32.25
2019-03-19T08:46:28.729Z,32.90
2019-03-19T08:51:32.301Z,32.94
2019-03-19T08:56:35.847Z,32.94
2019-03-19T09:01:39.394Z,33.36
2019-03-19T09:06:42.944Z,33.77
2019-03-19T09:11:46.677Z,32.54
2019-03-19T09:16:50.261Z,32.77
2019-03-19T09:21:53.862Z,32.60
2019-03-19T09:26:57.437Z,32.11
2019-03-19T09:32:01.017Z,32.73
2019-03-19T09:37:05.047Z,33.39
2019-03-19T09:42:08.598Z,33.33
2019-03-19T09:47:12.264Z,31.95
2019-03-19T09:52:15.792Z,34.55
2019-03-19T09:57:19.359Z,34.59
2019-03-19T10:02:23.842Z,35.02
2019-03-19T10:07:27.582Z,34.78
2019-03-19T10:12:31.132Z,34.45
2019-03-19T10:17:34.754Z,34.66
2019-03-19T10:22:38.308Z,34.85
2019-03-19T10:27:41.992Z,34.94
2019-03-19T10:32:45.537Z,34.77
2019-03-19T10:37:49.105Z,34.82
2019-03-19T10:42:52.639Z,34.82
2019-03-19T10:47:56.223Z,34.84
2019-03-19T10:52:59.876Z,34.51
2019-03-19T10:58:10.849Z,34.24
2019-03-19T11:03:08.856Z,34.91
2019-03-19T11:08:12.484Z,35.17
2019-03-19T11:13:16.096Z,35.21
2019-03-19T11:18:19.717Z,35.81
2019-03-19T11:23:23.344Z,32.60
2019-03-19T11:28:26.889Z,34.87
2019-03-19T11:33:30.488Z,35.99
2019-03-19T11:38:34.039Z,38.12
2019-03-19T11:43:37.613Z,38.05
2019-03-19T11:48:41.187Z,38.99
2019-03-19T11:53:44.717Z,39.09
2019-03-19T11:58:48.263Z,38.37
2019-03-19T12:03:52.448Z,36.92
2019-03-19T12:08:55.979Z,36.82
2019-03-19T12:13:59.661Z,37.22
2019-03-19T12:19:03.187Z,37.42
2019-03-19T12:24:06.753Z,36.64
2019-03-19T12:29:10.279Z,35.93
2019-03-19T12:34:13.928Z,35.12
2019-03-19T12:39:17.477Z,32.53
2019-03-19T12:44:21.051Z,31.94
2019-03-19T12:49:24.704Z,31.96
2019-03-19T12:54:28.229Z,31.44
2019-03-19T12:59:31.821Z,31.34
2019-03-19T13:04:35.350Z,30.57
2019-03-19T13:09:38.927Z,30.32
2019-03-19T13:14:42.498Z,30.42
2019-03-19T13:19:46.105Z,29.90
2019-03-19T13:24:49.678Z,29.73
2019-03-19T13:29:53.231Z,29.76
2019-03-19T13:34:56.903Z,29.77
2019-03-19T13:40:00.496Z,30.00
2019-03-19T13:45:07.510Z,30.31
2019-03-19T13:50:12.990Z,29.79
2019-03-19T13:55:17.787Z,29.36
2019-03-19T14:00:21.757Z,29.08
2019-03-19T14:05:25.277Z,28.99
2019-03-19T14:10:28.805Z,29.49
2019-03-19T14:15:32.370Z,29.18
2019-03-19T14:20:35.941Z,29.29
2019-03-19T14:25:39.461Z,29.23
2019-03-19T14:30:43.104Z,29.52
2019-03-19T14:35:46.718Z,29.97
2019-03-19T14:40:50.289Z,30.49
2019-03-19T14:45:53.866Z,30.50
2019-03-19T14:50:57.413Z,31.67
2019-03-19T14:56:00.984Z,32.46
2019-03-19T15:01:04.979Z,33.56
2019-03-19T15:06:08.535Z,34.35
2019-03-19T15:11:12.081Z,33.63
2019-03-19T15:16:17.717Z,34.85
2019-03-19T15:21:21.807Z,34.14
2019-03-19T15:26:27.737Z,33.99
2019-03-19T15:31:31.385Z,33.73
2019-03-19T15:36:35.056Z,33.02
2019-03-19T15:41:38.667Z,32.70
2019-03-19T15:46:42.290Z,31.76
2019-03-19T15:51:45.850Z,31.16
2019-03-19T15:56:49.521Z,30.58
2019-03-19T16:01:53.058Z,30.08
2019-03-19T16:06:56.619Z,29.57
2019-03-19T16:12:00.187Z,29.57
2019-03-19T16:17:03.730Z,29.69
2019-03-19T16:22:07.303Z,29.68
2019-03-19T16:27:10.985Z,30.15
2019-03-19T16:32:14.579Z,30.79
2019-03-19T16:37:18.780Z,31.12
2019-03-19T16:42:22.441Z,31.36
2019-03-19T16:47:26.053Z,32.22
2019-03-19T16:52:29.823Z,32.50
2019-03-19T16:57:33.499Z,33.31
2019-03-19T17:02:37.202Z,33.88
2019-03-19T17:07:40.745Z,34.41
2019-03-19T17:12:44.341Z,34.50
2019-03-19T17:17:48.043Z,33.76
2019-03-19T17:22:51.591Z,33.06
2019-03-19T17:27:55.198Z,32.00
2019-03-19T17:32:58.819Z,30.72
2019-03-19T17:38:02.403Z,29.91
2019-03-19T17:43:06.009Z,29.17
2019-03-19T17:48:16.053Z,28.77
2019-03-19T17:53:14.865Z,29.19
2019-03-19T17:58:18.409Z,29.24
2019-03-19T18:03:21.993Z,30.06
2019-03-19T18:08:25.694Z,30.60
2019-03-19T18:13:29.273Z,30.98
2019-03-19T18:18:32.861Z,31.52
2019-03-19T18:23:36.435Z,32.33
2019-03-19T18:28:40.009Z,32.67
2019-03-19T18:33:43.580Z,33.25
2019-03-19T18:38:47.146Z,33.94
2019-03-19T18:43:50.683Z,34.39
2019-03-19T18:48:54.283Z,34.78
2019-03-19T18:53:57.853Z,34.78
2019-03-19T18:59:01.646Z,34.20
2019-03-19T19:04:05.184Z,35.40
2019-03-19T19:09:09.129Z,33.89
2019-03-19T19:14:12.699Z,35.18
2019-03-19T19:19:16.281Z,36.50
2019-03-19T19:24:19.857Z,40.91
2019-03-19T19:29:23.441Z,38.96
2019-03-19T19:34:27.021Z,37.15
2019-03-19T19:39:30.599Z,37.90
2019-03-19T19:44:34.170Z,39.87
2019-03-19T19:49:37.744Z,38.79
2019-03-19T19:54:41.594Z,39.85
2019-03-19T19:59:45.219Z,38.47
2019-03-19T20:04:48.850Z,38.75
2019-03-19T20:09:52.400Z,38.69
2019-03-19T20:14:55.998Z,39.91
2019-03-19T20:19:59.552Z,39.56
2019-03-19T20:25:03.127Z,40.32
2019-03-19T20:30:15.926Z,40.69
2019-03-19T20:35:19.499Z,39.56
2019-03-19T20:40:23.051Z,49.33
2019-03-19T20:45:28.225Z,45.52
2019-03-19T20:50:34.289Z,47.29
2019-03-19T20:55:37.856Z,45.34
2019-03-19T21:00:41.429Z,44.49
2019-03-19T21:05:44.971Z,44.72
2019-03-19T21:10:48.547Z,41.75
2019-03-19T21:15:52.126Z,41.71
2019-03-19T21:20:55.677Z,43.23
2019-03-19T21:25:59.227Z,39.29
2019-03-19T21:31:02.809Z,44.05
2019-03-19T21:36:06.379Z,43.08
2019-03-19T21:41:09.926Z,41.36
2019-03-19T21:46:13.520Z,38.34
2019-03-19T21:51:17.081Z,36.90
2019-03-19T21:56:20.650Z,36.25
2019-03-19T22:01:24.212Z,36.25
2019-03-19T22:06:28.663Z,36.12
2019-03-19T22:11:32.945Z,36.75
2019-03-19T22:16:36.508Z,37.13
2019-03-19T22:21:40.086Z,37.92
2019-03-19T22:26:43.671Z,39.40
2019-03-19T22:31:47.322Z,40.62
2019-03-19T22:36:51.045Z,40.90
2019-03-19T22:41:54.648Z,41.54
2019-03-19T22:46:58.198Z,39.81
2019-03-19T22:52:01.824Z,38.18
2019-03-19T22:57:05.444Z,42.25
2019-03-19T23:02:09.000Z,40.34
2019-03-19T23:07:12.703Z,40.20
2019-03-19T23:12:16.290Z,38.93
2019-03-19T23:17:19.950Z,39.50
2019-03-19T23:22:23.525Z,41.87
2019-03-19T23:27:27.168Z,39.23
2019-03-19T23:32:30.785Z,38.39
2019-03-19T23:37:34.307Z,41.35
2019-03-19T23:42:37.860Z,42.29
2019-03-19T23:47:41.434Z,40.46
2019-03-19T23:52:45.018Z,39.18
2019-03-19T23:57:48.834Z,37.18
